createdAt,value
2019-05-22T00:00:47.118Z,18.59
2019-05-22T00:01:47.107Z,18.59
2019-05-22T00:02:47.106Z,18.59
2019-05-22T00:03:47.099Z,18.57
2019-05-22T00:04:47.079Z,18.64
2019-05-22T00:05:47.075Z,18.62
2019-05-22T00:06:47.058Z,18.54
2019-05-22T00:07:47.042Z,18.56
2019-05-22T00:08:47.043Z,18.59
2019-05-22T00:09:47.023Z,18.57
2019-05-22T00:10:47.037Z,18.59
2019-05-22T00:11:47.002Z,18.60
2019-05-22T00:12:47.392Z,18.50
2019-05-22T00:13:46.979Z,18.49
2019-05-22T00:14:46.969Z,18.38
2019-05-22T00:15:46.960Z,18.31
2019-05-22T00:16:46.950Z,18.38
2019-05-22T00:17:46.932Z,18.35
2019-05-22T00:18:46.920Z,18.25
2019-05-22T00:19:46.908Z,18.31
2019-05-22T00:20:46.959Z,18.34
2019-05-22T00:21:46.890Z,18.35
2019-05-22T00:22:46.889Z,18.34
2019-05-22T00:23:46.870Z,18.32
2019-05-22T00:24:46.862Z,18.28
2019-05-22T00:25:46.843Z,18.23
2019-05-22T00:26:46.845Z,18.20
2019-05-22T00:27:46.820Z,18.29
2019-05-22T00:28:46.811Z,18.31
2019-05-22T00:29:46.803Z,18.29
2019-05-22T00:30:46.787Z,18.28
2019-05-22T00:31:46.788Z,18.28
2019-05-22T00:32:46.769Z,18.26
2019-05-22T00:33:46.756Z,18.16
2019-05-22T00:34:46.747Z,18.11
2019-05-22T00:35:46.749Z,18.14
2019-05-22T00:36:46.753Z,18.10
2019-05-22T00:37:46.718Z,18.04
2019-05-22T00:38:46.700Z,17.99
2019-05-22T00:39:46.691Z,17.99
2019-05-22T00:40:46.679Z,17.96
2019-05-22T00:41:46.669Z,17.94
2019-05-22T00:43:01.161Z,18.01
2019-05-22T00:43:47.647Z,17.92
2019-05-22T00:44:46.632Z,17.89
2019-05-22T00:45:46.629Z,17.95
2019-05-22T00:46:46.610Z,17.84
2019-05-22T00:47:46.613Z,17.86
2019-05-22T00:48:46.593Z,17.94
2019-05-22T00:49:46.583Z,17.87
2019-05-22T00:50:46.575Z,17.94
2019-05-22T00:51:46.573Z,17.86
2019-05-22T00:52:46.577Z,17.87
2019-05-22T00:53:46.536Z,17.84
2019-05-22T00:54:46.519Z,17.99
2019-05-22T00:55:46.509Z,17.98
2019-05-22T00:56:46.500Z,17.92
2019-05-22T00:57:46.495Z,17.91
2019-05-22T00:58:46.512Z,17.96
2019-05-22T00:59:46.467Z,17.94
2019-05-22T01:00:46.459Z,17.92
2019-05-22T01:01:46.448Z,17.89
2019-05-22T01:02:46.437Z,17.99
2019-05-22T01:03:46.426Z,17.94
2019-05-22T01:04:46.424Z,17.95
2019-05-22T01:05:46.403Z,17.89
2019-05-22T01:06:46.401Z,17.83
2019-05-22T01:07:46.381Z,17.84
2019-05-22T01:08:46.395Z,17.84
2019-05-22T01:09:46.360Z,17.86
2019-05-22T01:10:46.352Z,17.76
2019-05-22T01:11:46.339Z,17.74
2019-05-22T01:12:46.320Z,17.80
2019-05-22T01:13:46.311Z,17.71
2019-05-22T01:14:46.313Z,17.71
2019-05-22T01:15:46.293Z,17.71
2019-05-22T01:16:46.277Z,17.66
2019-05-22T01:17:46.273Z,17.62
2019-05-22T01:18:46.274Z,17.55
2019-05-22T01:19:46.255Z,17.54
2019-05-22T01:20:46.237Z,17.58
2019-05-22T01:21:46.226Z,17.45
2019-05-22T01:22:47.458Z,17.46
2019-05-22T01:23:46.221Z,17.49
2019-05-22T01:24:46.214Z,17.45
2019-05-22T01:25:46.183Z,17.55
2019-05-22T01:26:46.170Z,17.51
2019-05-22T01:27:46.166Z,17.45
2019-05-22T01:28:46.147Z,17.46
2019-05-22T01:29:46.136Z,17.38
2019-05-22T01:30:46.137Z,17.39
2019-05-22T01:31:46.154Z,17.27
2019-05-22T01:32:46.107Z,17.25
2019-05-22T01:33:46.097Z,17.38
2019-05-22T01:34:46.087Z,17.27
2019-05-22T01:35:46.089Z,17.39
2019-05-22T01:36:46.057Z,17.36
2019-05-22T01:37:46.047Z,17.39
2019-05-22T01:38:46.038Z,17.40
2019-05-22T01:39:46.030Z,17.43
2019-05-22T01:40:46.020Z,17.47
2019-05-22T01:41:46.031Z,17.45
2019-05-22T01:42:45.997Z,17.62
2019-05-22T01:43:45.983Z,17.49
2019-05-22T01:44:59.791Z,17.60
2019-05-22T01:45:46.966Z,17.62
2019-05-22T01:46:45.950Z,17.63
2019-05-22T01:47:45.952Z,17.53
2019-05-22T01:48:45.933Z,17.58
2019-05-22T01:49:45.922Z,17.53
2019-05-22T01:50:45.910Z,17.55
2019-05-22T01:51:45.893Z,17.58
2019-05-22T01:52:45.898Z,17.54
2019-05-22T01:53:45.878Z,17.53
2019-05-22T01:54:45.868Z,17.53
2019-05-22T01:55:45.855Z,17.45
2019-05-22T01:56:45.856Z,17.49
2019-05-22T01:57:45.828Z,17.54
2019-05-22T01:58:45.820Z,17.45
2019-05-22T01:59:45.813Z,17.46
2019-05-22T02:00:45.807Z,17.45
2019-05-22T02:01:45.786Z,17.35
2019-05-22T02:02:45.790Z,17.42
2019-05-22T02:03:45.765Z,17.35
2019-05-22T02:04:45.756Z,17.17
2019-05-22T02:05:45.742Z,17.10
2019-05-22T02:06:45.733Z,17.15
2019-05-22T02:07:45.728Z,17.14
2019-05-22T02:08:45.714Z,17.17
2019-05-22T02:09:45.699Z,17.21
2019-05-22T02:10:45.702Z,17.14
2019-05-22T02:11:45.682Z,17.15
2019-05-22T02:12:45.669Z,17.05
2019-05-22T02:13:45.658Z,16.99
2019-05-22T02:14:45.647Z,17.10
2019-05-22T02:15:45.661Z,17.09
2019-05-22T02:16:56.002Z,17.10
2019-05-22T02:17:46.613Z,17.06
2019-05-22T02:18:45.600Z,17.10
2019-05-22T02:19:45.588Z,17.18
2019-05-22T02:20:45.583Z,17.15
2019-05-22T02:21:45.580Z,17.15
2019-05-22T02:22:45.564Z,17.14
2019-05-22T02:23:45.545Z,17.20
2019-05-22T02:24:45.536Z,17.12
2019-05-22T02:25:45.536Z,17.00
2019-05-22T02:26:45.520Z,16.99
2019-05-22T02:27:45.509Z,16.96
2019-05-22T02:28:45.507Z,17.02
2019-05-22T02:29:45.480Z,17.03
2019-05-22T02:30:45.499Z,17.00
2019-05-22T02:31:45.459Z,16.99
2019-05-22T02:32:45.456Z,16.98
2019-05-22T02:33:45.452Z,17.03
2019-05-22T02:34:45.431Z,17.00
2019-05-22T02:35:45.415Z,16.99
2019-05-22T02:36:45.437Z,16.95
2019-05-22T02:37:45.394Z,16.91
2019-05-22T02:38:45.389Z,16.96
2019-05-22T02:39:45.377Z,16.95
2019-05-22T02:40:45.365Z,17.00
2019-05-22T02:41:45.365Z,16.90
2019-05-22T02:42:45.357Z,16.96
2019-05-22T02:43:45.335Z,17.02
2019-05-22T02:44:45.324Z,17.00
2019-05-22T02:45:45.326Z,17.02
2019-05-22T02:46:45.305Z,16.99
2019-05-22T02:47:45.315Z,17.00
2019-05-22T02:48:45.280Z,17.00
2019-05-22T02:49:45.264Z,16.99
2019-05-22T02:50:45.254Z,17.05
2019-05-22T02:51:45.250Z,16.96
2019-05-22T02:52:45.243Z,16.96
2019-05-22T02:53:45.234Z,17.06
2019-05-22T02:54:45.216Z,17.05
2019-05-22T02:55:45.204Z,17.00
2019-05-22T02:56:45.190Z,17.00
2019-05-22T02:57:45.178Z,16.92
2019-05-22T02:58:45.207Z,16.85
2019-05-22T02:59:45.158Z,16.80
2019-05-22T03:00:45.150Z,16.85
2019-05-22T03:01:45.140Z,16.82
2019-05-22T03:02:45.127Z,16.78
2019-05-22T03:03:45.114Z,16.77
2019-05-22T03:04:45.154Z,16.80
2019-05-22T03:05:45.091Z,16.73
2019-05-22T03:06:45.080Z,16.78
2019-05-22T03:07:45.069Z,16.75
2019-05-22T03:08:45.068Z,16.81
2019-05-22T03:09:46.714Z,16.81
2019-05-22T03:10:45.053Z,16.81
2019-05-22T03:11:45.024Z,16.75
2019-05-22T03:12:45.014Z,16.77
2019-05-22T03:13:45.010Z,16.77
2019-05-22T03:14:44.995Z,16.78
2019-05-22T03:15:44.995Z,16.81
2019-05-22T03:16:44.985Z,16.82
2019-05-22T03:17:44.987Z,16.87
2019-05-22T03:18:44.950Z,16.92
2019-05-22T03:19:44.951Z,16.84
2019-05-22T03:20:44.948Z,16.80
2019-05-22T03:21:44.923Z,16.78
2019-05-22T03:22:44.911Z,16.69
2019-05-22T03:23:44.897Z,16.72
2019-05-22T03:24:44.884Z,16.73
2019-05-22T03:25:44.907Z,16.62
2019-05-22T03:26:44.864Z,16.70
2019-05-22T03:27:44.868Z,16.72
2019-05-22T03:28:44.847Z,16.65
2019-05-22T03:29:44.834Z,16.65
2019-05-22T03:30:44.853Z,16.69
2019-05-22T03:31:44.843Z,16.65
2019-05-22T03:32:45.012Z,16.67
2019-05-22T03:33:44.902Z,16.67
2019-05-22T03:34:44.783Z,16.70
2019-05-22T03:35:44.770Z,16.73
2019-05-22T03:36:44.760Z,16.69
2019-05-22T03:37:44.765Z,16.70
2019-05-22T03:38:44.733Z,16.60
2019-05-22T03:39:44.726Z,16.67
2019-05-22T03:40:44.718Z,16.65
2019-05-22T03:41:44.700Z,16.63
2019-05-22T03:42:44.695Z,16.67
2019-05-22T03:43:44.690Z,16.70
2019-05-22T03:44:44.674Z,16.67
2019-05-22T03:45:44.655Z,16.57
2019-05-22T03:46:44.648Z,16.52
2019-05-22T03:47:44.646Z,16.54
2019-05-22T03:48:44.628Z,16.50
2019-05-22T03:49:44.634Z,16.48
2019-05-22T03:50:44.599Z,16.50
2019-05-22T03:51:44.599Z,16.44
2019-05-22T03:52:44.584Z,16.48
2019-05-22T03:53:44.602Z,16.48
2019-05-22T03:54:44.555Z,16.54
2019-05-22T03:55:44.553Z,16.37
2019-05-22T03:56:44.556Z,16.32
2019-05-22T03:57:44.534Z,16.27
2019-05-22T03:58:44.512Z,16.36
2019-05-22T03:59:44.513Z,16.30
2019-05-22T04:00:44.526Z,16.30
2019-05-22T04:01:44.485Z,16.30
2019-05-22T04:02:44.468Z,16.32
2019-05-22T04:03:44.465Z,16.36
2019-05-22T04:04:44.453Z,16.32
2019-05-22T04:05:44.434Z,16.30
2019-05-22T04:06:44.432Z,16.33
2019-05-22T04:07:44.422Z,16.14
2019-05-22T04:08:44.411Z,16.14
2019-05-22T04:09:44.415Z,16.14
2019-05-22T04:10:44.385Z,16.08
2019-05-22T04:11:44.371Z,16.14
2019-05-22T04:12:44.355Z,16.01
2019-05-22T04:13:44.347Z,15.98
2019-05-22T04:14:44.348Z,16.11
2019-05-22T04:15:44.339Z,16.13
2019-05-22T04:16:44.313Z,16.17
2019-05-22T04:17:44.303Z,15.99
2019-05-22T04:18:44.292Z,16.01
2019-05-22T04:19:50.093Z,15.99
2019-05-22T04:20:45.281Z,15.96
2019-05-22T04:21:44.260Z,15.91
2019-05-22T04:22:44.257Z,15.86
2019-05-22T04:23:44.244Z,15.89
2019-05-22T04:24:44.240Z,15.89
2019-05-22T04:25:44.239Z,15.89
2019-05-22T04:26:44.202Z,15.96
2019-05-22T04:27:44.198Z,15.86
2019-05-22T04:28:44.185Z,15.89
2019-05-22T04:29:44.174Z,15.93
2019-05-22T04:30:44.166Z,15.74
2019-05-22T04:31:44.158Z,15.74
2019-05-22T04:32:44.161Z,15.70
2019-05-22T04:33:44.128Z,15.70
2019-05-22T04:34:44.116Z,15.70
2019-05-22T04:35:44.107Z,15.74
2019-05-22T04:36:44.116Z,15.70
2019-05-22T04:37:44.141Z,15.67
2019-05-22T04:38:44.082Z,15.71
2019-05-22T04:39:44.057Z,15.58
2019-05-22T04:40:44.050Z,15.58
2019-05-22T04:41:44.047Z,15.58
2019-05-22T04:42:44.151Z,15.51
2019-05-22T04:43:44.012Z,15.56
2019-05-22T04:44:44.036Z,15.41
2019-05-22T04:45:43.999Z,15.56
2019-05-22T04:46:43.985Z,15.62
2019-05-22T04:47:43.973Z,15.59
2019-05-22T04:48:46.067Z,15.58
2019-05-22T04:49:43.955Z,15.62
2019-05-22T04:50:43.955Z,15.62
2019-05-22T04:51:43.923Z,15.60
2019-05-22T04:52:43.923Z,15.67
2019-05-22T04:53:43.911Z,15.56
2019-05-22T04:54:43.902Z,15.59
2019-05-22T04:55:43.897Z,15.55
2019-05-22T04:56:43.872Z,15.51
2019-05-22T04:57:43.861Z,15.48
2019-05-22T04:58:43.855Z,15.55
2019-05-22T04:59:43.854Z,15.53
2019-05-22T05:00:43.829Z,15.49
2019-05-22T05:01:43.818Z,15.53
2019-05-22T05:02:43.821Z,15.53
2019-05-22T05:03:43.797Z,15.56
2019-05-22T05:04:43.793Z,15.58
2019-05-22T05:05:43.786Z,15.55
2019-05-22T05:06:43.760Z,15.59
2019-05-22T05:07:43.747Z,15.55
2019-05-22T05:08:43.769Z,15.53
2019-05-22T05:09:43.728Z,15.46
2019-05-22T05:10:43.718Z,15.51
2019-05-22T05:11:43.705Z,15.52
2019-05-22T05:12:43.701Z,15.52
2019-05-22T05:13:43.682Z,15.44
2019-05-22T05:14:43.700Z,15.49
2019-05-22T05:15:43.668Z,15.48
2019-05-22T05:16:43.656Z,15.49
2019-05-22T05:17:43.638Z,15.46
2019-05-22T05:18:43.628Z,15.49
2019-05-22T05:19:43.618Z,15.40
2019-05-22T05:20:43.661Z,15.49
2019-05-22T05:21:43.605Z,15.44
2019-05-22T05:22:43.583Z,15.41
2019-05-22T05:23:43.572Z,15.46
2019-05-22T05:24:50.614Z,15.41
2019-05-22T05:25:43.558Z,15.46
2019-05-22T05:26:43.546Z,15.38
2019-05-22T05:27:43.535Z,15.38
2019-05-22T05:28:43.538Z,15.34
2019-05-22T05:29:43.511Z,15.33
2019-05-22T05:30:43.496Z,15.33
2019-05-22T05:31:43.490Z,15.28
2019-05-22T05:32:43.479Z,15.30
2019-05-22T05:33:43.478Z,15.28
2019-05-22T05:34:45.520Z,15.30
2019-05-22T05:35:43.442Z,15.27
2019-05-22T05:36:43.436Z,15.25
2019-05-22T05:37:43.425Z,15.31
2019-05-22T05:38:43.439Z,15.31
2019-05-22T05:39:43.403Z,15.31
2019-05-22T05:40:43.396Z,15.28
2019-05-22T05:41:43.382Z,15.37
2019-05-22T05:42:43.368Z,15.44
2019-05-22T05:43:43.363Z,15.43
2019-05-22T05:44:43.355Z,15.35
2019-05-22T05:45:43.343Z,15.34
2019-05-22T05:46:43.321Z,15.12
2019-05-22T05:47:43.312Z,15.22
2019-05-22T05:48:43.299Z,15.19
2019-05-22T05:49:43.326Z,15.19
2019-05-22T05:50:43.283Z,15.22
2019-05-22T05:51:43.270Z,15.18
2019-05-22T05:52:43.256Z,15.23
2019-05-22T05:53:43.245Z,15.33
2019-05-22T05:54:43.239Z,15.28
2019-05-22T05:55:43.233Z,15.34
2019-05-22T05:56:43.239Z,15.30
2019-05-22T05:57:43.202Z,15.28
2019-05-22T05:58:43.201Z,15.20
2019-05-22T05:59:43.188Z,15.19
2019-05-22T06:00:44.695Z,15.18
2019-05-22T06:01:43.157Z,15.15
2019-05-22T06:02:55.740Z,15.22
2019-05-22T06:03:44.135Z,15.23
2019-05-22T06:04:43.127Z,15.18
2019-05-22T06:05:43.123Z,15.18
2019-05-22T06:06:43.126Z,15.09
2019-05-22T06:07:43.097Z,15.01
2019-05-22T06:08:43.089Z,14.95
2019-05-22T06:09:43.092Z,15.03
2019-05-22T06:10:43.060Z,15.05
2019-05-22T06:11:43.058Z,15.04
2019-05-22T06:12:43.038Z,15.03
2019-05-22T06:13:43.026Z,15.04
2019-05-22T06:14:43.027Z,14.90
2019-05-22T06:15:46.961Z,14.98
2019-05-22T06:16:43.000Z,14.98
2019-05-22T06:17:42.997Z,15.04
2019-05-22T06:18:42.972Z,15.00
2019-05-22T06:19:42.962Z,15.00
2019-05-22T06:20:42.952Z,15.00
2019-05-22T06:21:42.946Z,14.94
2019-05-22T06:22:42.966Z,15.01
2019-05-22T06:23:42.917Z,15.00
2019-05-22T06:24:42.911Z,14.97
2019-05-22T06:25:42.899Z,15.18
2019-05-22T06:26:42.891Z,15.15
2019-05-22T06:27:42.876Z,15.22
2019-05-22T06:28:42.877Z,15.23
2019-05-22T06:29:42.858Z,15.13
2019-05-22T06:30:42.848Z,15.13
2019-05-22T06:31:42.834Z,15.12
2019-05-22T06:32:42.818Z,15.09
2019-05-22T06:33:42.952Z,15.05
2019-05-22T06:34:42.797Z,15.00
2019-05-22T06:35:42.785Z,14.98
2019-05-22T06:36:42.788Z,15.01
2019-05-22T06:37:42.773Z,15.00
2019-05-22T06:38:42.755Z,14.94
2019-05-22T06:39:42.791Z,14.94
2019-05-22T06:40:42.731Z,14.90
2019-05-22T06:41:42.719Z,14.79
2019-05-22T06:42:42.715Z,14.86
2019-05-22T06:43:42.699Z,14.69
2019-05-22T06:44:42.686Z,14.71
2019-05-22T06:45:42.690Z,14.72
2019-05-22T06:46:42.666Z,14.69
2019-05-22T06:47:42.660Z,14.63
2019-05-22T06:48:42.659Z,14.69
2019-05-22T06:49:42.632Z,14.78
2019-05-22T06:50:42.669Z,14.72
2019-05-22T06:51:42.611Z,14.64
2019-05-22T06:52:42.606Z,14.66
2019-05-22T06:53:42.593Z,14.64
2019-05-22T06:54:42.584Z,14.69
2019-05-22T06:55:42.575Z,14.64
2019-05-22T06:56:42.569Z,14.60
2019-05-22T06:57:42.544Z,14.63
2019-05-22T06:58:42.545Z,14.67
2019-05-22T06:59:42.529Z,14.72
2019-05-22T07:00:42.520Z,14.64
2019-05-22T07:01:42.515Z,14.67
2019-05-22T07:02:42.496Z,14.69
2019-05-22T07:03:42.488Z,14.66
2019-05-22T07:04:42.473Z,14.67
2019-05-22T07:05:42.466Z,14.64
2019-05-22T07:06:42.485Z,14.69
2019-05-22T07:07:42.447Z,14.71
2019-05-22T07:08:42.442Z,14.74
2019-05-22T07:09:42.419Z,14.79
2019-05-22T07:10:42.424Z,14.82
2019-05-22T07:11:42.406Z,14.79
2019-05-22T07:12:42.408Z,14.86
2019-05-22T07:13:42.371Z,14.85
2019-05-22T07:14:42.363Z,14.82
2019-05-22T07:15:42.359Z,14.82
2019-05-22T07:16:42.344Z,14.75
2019-05-22T07:17:42.339Z,14.67
2019-05-22T07:18:42.319Z,14.64
2019-05-22T07:19:42.314Z,14.52
2019-05-22T07:20:42.296Z,14.57
2019-05-22T07:21:42.284Z,14.60
2019-05-22T07:22:42.351Z,14.63
2019-05-22T07:23:42.279Z,14.78
2019-05-22T07:24:42.265Z,14.69
2019-05-22T07:25:42.241Z,14.64
2019-05-22T07:26:42.230Z,14.60
2019-05-22T07:27:42.220Z,14.64
2019-05-22T07:28:42.215Z,14.54
2019-05-22T07:29:42.205Z,14.61
2019-05-22T07:30:42.198Z,14.64
2019-05-22T07:31:42.180Z,14.64
2019-05-22T07:32:42.167Z,14.66
2019-05-22T07:33:42.159Z,14.71
2019-05-22T07:34:42.152Z,14.66
2019-05-22T07:36:04.871Z,14.74
2019-05-22T07:36:43.134Z,14.61
2019-05-22T07:37:42.120Z,14.60
2019-05-22T07:38:42.107Z,14.60
2019-05-22T07:39:42.101Z,14.56
2019-05-22T07:40:42.084Z,14.59
2019-05-22T07:41:42.079Z,14.52
2019-05-22T07:42:42.062Z,14.53
2019-05-22T07:43:42.331Z,14.49
2019-05-22T07:44:42.045Z,14.48
2019-05-22T07:45:42.043Z,14.57
2019-05-22T07:46:42.019Z,14.64
2019-05-22T07:47:42.123Z,14.60
2019-05-22T07:48:42.006Z,14.64
2019-05-22T07:49:41.985Z,14.64
2019-05-22T07:50:41.970Z,14.63
2019-05-22T07:51:51.872Z,14.67
2019-05-22T07:52:42.956Z,14.61
2019-05-22T07:53:41.954Z,14.66
2019-05-22T07:54:41.940Z,14.57
2019-05-22T07:55:41.919Z,14.49
2019-05-22T07:56:41.920Z,14.57
2019-05-22T07:57:41.921Z,14.59
2019-05-22T07:58:41.891Z,14.64
2019-05-22T07:59:41.879Z,14.60
2019-05-22T08:00:41.872Z,14.53
2019-05-22T08:01:41.856Z,14.57
2019-05-22T08:02:41.845Z,14.46
2019-05-22T08:03:41.830Z,14.49
2019-05-22T08:04:41.831Z,14.60
2019-05-22T08:05:41.808Z,14.60
2019-05-22T08:06:41.803Z,14.63
2019-05-22T08:07:41.866Z,14.57
2019-05-22T08:08:41.785Z,14.66
2019-05-22T08:09:41.773Z,14.71
2019-05-22T08:10:41.765Z,14.69
2019-05-22T08:11:41.743Z,14.63
2019-05-22T08:12:41.732Z,14.67
2019-05-22T08:13:41.721Z,14.67
2019-05-22T08:14:41.713Z,14.67
2019-05-22T08:15:41.706Z,14.72
2019-05-22T08:16:41.695Z,14.71
2019-05-22T08:17:41.684Z,14.61
2019-05-22T08:18:41.668Z,14.61
2019-05-22T08:19:41.656Z,14.59
2019-05-22T08:20:41.649Z,14.49
2019-05-22T08:21:41.639Z,14.59
2019-05-22T08:22:41.624Z,14.59
2019-05-22T08:23:41.631Z,14.60
2019-05-22T08:24:41.602Z,14.53
2019-05-22T08:25:41.596Z,14.59
2019-05-22T08:26:53.762Z,14.59
2019-05-22T08:27:42.578Z,14.60
2019-05-22T08:28:41.573Z,14.60
2019-05-22T08:29:41.552Z,14.63
2019-05-22T08:30:41.541Z,14.61
2019-05-22T08:31:41.604Z,14.64
2019-05-22T08:32:41.515Z,14.64
2019-05-22T08:33:41.502Z,14.60
2019-05-22T08:34:41.500Z,14.71
2019-05-22T08:35:41.497Z,14.59
2019-05-22T08:36:41.498Z,14.57
2019-05-22T08:37:41.464Z,14.64
2019-05-22T08:38:41.515Z,14.56
2019-05-22T08:39:41.452Z,14.56
2019-05-22T08:40:41.431Z,14.48
2019-05-22T08:41:41.421Z,14.46
2019-05-22T08:42:41.405Z,14.49
2019-05-22T08:44:03.390Z,14.48
2019-05-22T08:44:42.383Z,14.48
2019-05-22T08:45:41.379Z,14.45
2019-05-22T08:46:41.368Z,14.54
2019-05-22T08:47:41.358Z,14.53
2019-05-22T08:48:47.393Z,14.53
2019-05-22T08:49:42.337Z,14.49
2019-05-22T08:50:41.370Z,14.52
2019-05-22T08:51:41.317Z,14.49
2019-05-22T08:52:41.302Z,14.53
2019-05-22T08:53:47.558Z,14.57
2019-05-22T08:54:42.282Z,14.60
2019-05-22T08:55:41.269Z,14.67
2019-05-22T08:56:41.261Z,14.64
2019-05-22T08:57:41.266Z,14.61
2019-05-22T08:58:41.241Z,14.60
2019-05-22T08:59:41.220Z,14.53
2019-05-22T09:00:41.217Z,14.49
2019-05-22T09:01:41.205Z,14.39
2019-05-22T09:02:41.224Z,14.38
2019-05-22T09:03:41.182Z,14.30
2019-05-22T09:04:41.165Z,14.39
2019-05-22T09:05:41.161Z,14.35
2019-05-22T09:06:41.146Z,14.36
2019-05-22T09:07:41.140Z,14.48
2019-05-22T09:08:41.177Z,14.54
2019-05-22T09:09:41.118Z,14.57
2019-05-22T09:10:41.143Z,14.61
2019-05-22T09:11:41.104Z,14.56
2019-05-22T09:12:41.093Z,14.57
2019-05-22T09:13:41.072Z,14.54
2019-05-22T09:14:41.066Z,14.59
2019-05-22T09:15:41.053Z,14.60
2019-05-22T09:16:41.042Z,14.64
2019-05-22T09:17:41.030Z,14.71
2019-05-22T09:18:41.034Z,14.66
2019-05-22T09:19:41.012Z,14.64
2019-05-22T09:20:49.248Z,14.66
2019-05-22T09:21:41.982Z,14.72
2019-05-22T09:22:41.697Z,14.72
2019-05-22T09:23:40.985Z,14.72
2019-05-22T09:24:40.974Z,14.74
2019-05-22T09:25:40.947Z,14.80
2019-05-22T09:26:40.932Z,14.75
2019-05-22T09:27:40.916Z,14.75
2019-05-22T09:28:40.907Z,14.90
2019-05-22T09:29:40.905Z,14.87
2019-05-22T09:30:40.896Z,14.95
2019-05-22T09:31:40.884Z,15.01
2019-05-22T09:32:40.860Z,15.01
2019-05-22T09:33:40.852Z,15.09
2019-05-22T09:34:40.846Z,15.07
2019-05-22T09:35:40.907Z,15.18
2019-05-22T09:36:40.822Z,15.13
2019-05-22T09:37:40.805Z,15.15
2019-05-22T09:38:40.802Z,15.18
2019-05-22T09:39:40.782Z,15.16
2019-05-22T09:40:40.774Z,15.09
2019-05-22T09:41:40.774Z,15.07
2019-05-22T09:42:40.763Z,14.95
2019-05-22T09:43:40.739Z,15.07
2019-05-22T09:44:40.729Z,15.15
2019-05-22T09:45:40.725Z,15.11
2019-05-22T09:46:40.721Z,15.12
2019-05-22T09:47:40.694Z,15.15
2019-05-22T09:48:40.754Z,15.13
2019-05-22T09:49:40.737Z,15.12
2019-05-22T09:50:40.661Z,15.15
2019-05-22T09:51:40.665Z,15.16
2019-05-22T09:52:54.634Z,15.13
2019-05-22T09:53:41.637Z,15.22
2019-05-22T09:54:40.630Z,15.22
2019-05-22T09:55:40.662Z,15.31
2019-05-22T09:56:40.603Z,15.25
2019-05-22T09:57:40.591Z,15.23
2019-05-22T09:58:40.575Z,15.33
2019-05-22T09:59:40.566Z,15.22
2019-05-22T10:00:40.554Z,15.35
2019-05-22T10:01:40.550Z,15.38
2019-05-22T10:02:40.531Z,15.31
2019-05-22T10:03:40.529Z,15.31
2019-05-22T10:04:40.513Z,15.35
2019-05-22T10:05:40.558Z,15.28
2019-05-22T10:06:40.494Z,15.33
2019-05-22T10:07:57.071Z,15.28
2019-05-22T10:08:41.466Z,15.33
2019-05-22T10:09:40.460Z,15.35
2019-05-22T10:10:40.440Z,15.23
2019-05-22T10:11:40.442Z,15.31
2019-05-22T10:12:40.424Z,15.30
2019-05-22T10:13:40.412Z,15.22
2019-05-22T10:14:40.396Z,15.16
2019-05-22T10:15:40.394Z,15.13
2019-05-22T10:16:40.388Z,15.12
2019-05-22T10:17:40.366Z,15.09
2019-05-22T10:18:40.365Z,15.18
2019-05-22T10:19:40.355Z,15.11
2019-05-22T10:20:40.336Z,15.12
2019-05-22T10:21:40.325Z,15.13
2019-05-22T10:22:40.317Z,15.22
2019-05-22T10:23:40.296Z,15.19
2019-05-22T10:24:40.299Z,15.15
2019-05-22T10:25:40.278Z,15.18
2019-05-22T10:26:40.267Z,15.18
2019-05-22T10:27:40.256Z,15.09
2019-05-22T10:28:40.251Z,15.20
2019-05-22T10:29:40.270Z,15.11
2019-05-22T10:30:40.219Z,15.13
2019-05-22T10:31:40.207Z,15.12
2019-05-22T10:32:40.195Z,15.18
2019-05-22T10:33:40.194Z,15.09
2019-05-22T10:34:40.178Z,15.00
2019-05-22T10:35:40.171Z,15.09
2019-05-22T10:36:43.137Z,15.04
2019-05-22T10:37:40.147Z,15.04
2019-05-22T10:38:40.135Z,15.12
2019-05-22T10:39:40.120Z,15.13
2019-05-22T10:40:40.134Z,15.11
2019-05-22T10:41:40.096Z,15.07
2019-05-22T10:42:44.405Z,15.07
2019-05-22T10:43:41.073Z,15.13
2019-05-22T10:44:40.090Z,15.15
2019-05-22T10:45:40.053Z,15.05
2019-05-22T10:46:40.049Z,15.03
2019-05-22T10:47:40.051Z,14.90
2019-05-22T10:48:40.820Z,14.93
2019-05-22T10:49:40.230Z,14.90
2019-05-22T10:50:40.042Z,14.94
2019-05-22T10:51:39.996Z,14.97
2019-05-22T10:52:39.982Z,15.09
2019-05-22T10:53:39.978Z,15.00
2019-05-22T10:54:39.951Z,14.94
2019-05-22T10:55:39.946Z,15.07
2019-05-22T10:56:39.957Z,15.16
2019-05-22T10:57:40.944Z,15.09
2019-05-22T10:58:39.913Z,15.11
2019-05-22T10:59:39.901Z,15.12
2019-05-22T11:00:39.891Z,15.16
2019-05-22T11:01:39.874Z,15.13
2019-05-22T11:02:39.876Z,15.04
2019-05-22T11:03:39.860Z,15.07
2019-05-22T11:04:39.852Z,14.98
2019-05-22T11:05:39.829Z,14.95
2019-05-22T11:06:39.820Z,15.11
2019-05-22T11:07:39.870Z,15.07
2019-05-22T11:08:39.802Z,14.94
2019-05-22T11:09:39.785Z,14.91
2019-05-22T11:10:39.782Z,14.87
2019-05-22T11:11:39.772Z,14.95
2019-05-22T11:12:39.760Z,14.94
2019-05-22T11:13:39.753Z,14.87
2019-05-22T11:14:39.736Z,15.01
2019-05-22T11:15:39.725Z,15.03
2019-05-22T11:16:39.708Z,14.93
2019-05-22T11:17:39.699Z,14.90
2019-05-22T11:18:39.695Z,14.93
2019-05-22T11:19:39.678Z,14.90
2019-05-22T11:20:39.663Z,14.90
2019-05-22T11:21:39.684Z,14.93
2019-05-22T11:22:39.641Z,14.87
2019-05-22T11:23:51.511Z,14.87
2019-05-22T11:24:40.628Z,14.91
2019-05-22T11:25:39.613Z,14.87
2019-05-22T11:26:39.597Z,14.91
2019-05-22T11:27:39.598Z,14.82
2019-05-22T11:28:39.588Z,14.78
2019-05-22T11:29:40.375Z,14.87
2019-05-22T11:30:39.563Z,14.85
2019-05-22T11:31:39.548Z,14.82
2019-05-22T11:32:39.536Z,14.82
2019-05-22T11:33:39.534Z,14.85
2019-05-22T11:34:39.509Z,14.86
2019-05-22T11:35:39.533Z,14.82
2019-05-22T11:36:39.491Z,14.83
2019-05-22T11:37:39.476Z,14.79
2019-05-22T11:38:39.472Z,14.86
2019-05-22T11:39:42.610Z,14.82
2019-05-22T11:40:40.457Z,14.83
2019-05-22T11:41:39.431Z,14.85
2019-05-22T11:42:39.428Z,14.91
2019-05-22T11:43:39.423Z,14.82
2019-05-22T11:44:39.404Z,14.82
2019-05-22T11:45:39.402Z,14.98
2019-05-22T11:46:39.396Z,14.95
2019-05-22T11:47:39.439Z,14.94
2019-05-22T11:48:39.360Z,14.95
2019-05-22T11:49:39.346Z,14.94
2019-05-22T11:50:39.356Z,15.00
2019-05-22T11:51:39.343Z,14.91
2019-05-22T11:52:39.336Z,14.82
2019-05-22T11:53:39.309Z,14.78
2019-05-22T11:54:39.326Z,14.71
2019-05-22T11:55:45.242Z,14.69
2019-05-22T11:56:40.277Z,14.66
2019-05-22T11:57:39.257Z,14.71
2019-05-22T11:58:39.256Z,14.67
2019-05-22T11:59:39.237Z,14.71
2019-05-22T12:00:39.232Z,14.64
2019-05-22T12:01:39.243Z,14.60
2019-05-22T12:02:39.210Z,14.74
2019-05-22T12:03:39.198Z,14.72
2019-05-22T12:04:47.714Z,14.64
2019-05-22T12:05:40.169Z,14.69
2019-05-22T12:06:39.174Z,14.66
2019-05-22T12:07:39.158Z,14.57
2019-05-22T12:08:39.151Z,14.64
2019-05-22T12:09:39.179Z,14.63
2019-05-22T12:10:39.115Z,14.67
2019-05-22T12:11:42.939Z,14.64
2019-05-22T12:12:39.107Z,14.72
2019-05-22T12:13:39.089Z,14.75
2019-05-22T12:14:39.074Z,14.72
2019-05-22T12:15:39.083Z,14.72
2019-05-22T12:16:39.053Z,14.66
2019-05-22T12:17:39.181Z,14.69
2019-05-22T12:18:39.031Z,14.67
2019-05-22T12:19:39.035Z,14.66
2019-05-22T12:20:39.006Z,14.71
2019-05-22T12:21:39.003Z,14.67
2019-05-22T12:22:38.992Z,14.66
2019-05-22T12:23:38.981Z,14.66
2019-05-22T12:24:39.025Z,14.69
2019-05-22T12:25:38.955Z,14.63
2019-05-22T12:26:38.946Z,14.63
2019-05-22T12:27:38.935Z,14.69
2019-05-22T12:28:38.920Z,14.69
2019-05-22T12:29:38.916Z,14.61
2019-05-22T12:30:38.908Z,14.63
2019-05-22T12:31:38.914Z,14.66
2019-05-22T12:32:38.949Z,14.61
2019-05-22T12:33:38.865Z,14.69
2019-05-22T12:34:38.936Z,14.69
2019-05-22T12:35:38.902Z,14.79
2019-05-22T12:36:38.847Z,14.69
2019-05-22T12:37:38.831Z,14.78
2019-05-22T12:38:38.811Z,14.75
2019-05-22T12:39:38.807Z,14.74
2019-05-22T12:40:38.795Z,14.67
2019-05-22T12:41:38.843Z,14.75
2019-05-22T12:42:38.868Z,14.74
2019-05-22T12:43:38.762Z,14.75
2019-05-22T12:44:38.756Z,14.74
2019-05-22T12:45:38.737Z,14.79
2019-05-22T12:46:38.741Z,14.74
2019-05-22T12:47:38.737Z,14.79
2019-05-22T12:48:38.708Z,14.79
2019-05-22T12:49:38.700Z,14.79
2019-05-22T12:50:38.681Z,14.82
2019-05-22T12:51:38.683Z,14.82
2019-05-22T12:52:38.671Z,14.78